sensor_id;sensor_type;location;lat;lon;timestamp;P1;durP1;ratioP1;P2;durP2;ratioP2
46447;SDS011;32145;50.390;30.778;2022-08-19T00:00:58;11.60;;;4.20;;
46447;SDS011;32145;50.390;30.778;2022-08-19T00:03:42;9.55;;;4.38;;
46447;SDS011;32145;50.390;30.778;2022-08-19T00:06:26;10.85;;;4.10;;
46447;SDS011;32145;50.390;30.778;2022-08-19T00:09:12;8.13;;;4.45;;
46447;SDS011;32145;50.390;30.778;2022-08-19T00:11:58;8.55;;;4.13;;
46447;SDS011;32145;50.390;30.778;2022-08-19T00:14:44;8.65;;;4.20;;
46447;SDS011;32145;50.390;30.778;2022-08-19T00:17:28;10.77;;;3.78;;
46447;SDS011;32145;50.390;30.778;2022-08-19T00:20:13;17.63;;;4.53;;
46447;SDS011;32145;50.390;30.778;2022-08-19T00:23:00;9.65;;;4.45;;
46447;SDS011;32145;50.390;30.778;2022-08-19T00:25:44;8.80;;;4.15;;
46447;SDS011;32145;50.390;30.778;2022-08-19T00:28:28;9.48;;;4.35;;
46447;SDS011;32145;50.390;30.778;2022-08-19T00:31:14;12.15;;;4.40;;
46447;SDS011;32145;50.390;30.778;2022-08-19T00:33:59;12.77;;;4.57;;
46447;SDS011;32145;50.390;30.778;2022-08-19T00:36:43;10.85;;;4.65;;
46447;SDS011;32145;50.390;30.778;2022-08-19T00:39:28;10.68;;;4.30;;
46447;SDS011;32145;50.390;30.778;2022-08-19T00:42:12;10.75;;;4.80;;
46447;SDS011;32145;50.390;30.778;2022-08-19T00:44:56;7.85;;;4.40;;
46447;SDS011;32145;50.390;30.778;2022-08-19T00:47:42;8.45;;;4.68;;
46447;SDS011;32145;50.390;30.778;2022-08-19T00:50:26;10.02;;;4.40;;
46447;SDS011;32145;50.390;30.778;2022-08-19T00:53:10;6.30;;;4.43;;
46447;SDS011;32145;50.390;30.778;2022-08-19T00:55:58;12.27;;;4.65;;
46447;SDS011;32145;50.390;30.778;2022-08-19T00:58:44;11.70;;;4.70;;
46447;SDS011;32145;50.390;30.778;2022-08-19T01:01:28;13.23;;;4.78;;
46447;SDS011;32145;50.390;30.778;2022-08-19T01:04:13;9.18;;;4.72;;
46447;SDS011;32145;50.390;30.778;2022-08-19T01:06:57;12.80;;;4.75;;
46447;SDS011;32145;50.390;30.778;2022-08-19T01:09:42;13.05;;;4.68;;
46447;SDS011;32145;50.390;30.778;2022-08-19T01:12:26;11.98;;;4.78;;
46447;SDS011;32145;50.390;30.778;2022-08-19T01:15:11;8.05;;;4.82;;
46447;SDS011;32145;50.390;30.778;2022-08-19T01:18:00;9.83;;;5.00;;
46447;SDS011;32145;50.390;30.778;2022-08-19T01:20:49;13.77;;;5.40;;
46447;SDS011;32145;50.390;30.778;2022-08-19T01:23:36;9.95;;;5.18;;
46447;SDS011;32145;50.390;30.778;2022-08-19T01:26:21;14.30;;;5.20;;
46447;SDS011;32145;50.390;30.778;2022-08-19T01:29:07;10.70;;;4.88;;
46447;SDS011;32145;50.390;30.778;2022-08-19T01:31:52;8.15;;;5.10;;
46447;SDS011;32145;50.390;30.778;2022-08-19T01:34:36;10.95;;;5.20;;
46447;SDS011;32145;50.390;30.778;2022-08-19T01:37:21;12.63;;;4.82;;
46447;SDS011;32145;50.390;30.778;2022-08-19T01:40:07;9.57;;;4.90;;
46447;SDS011;32145;50.390;30.778;2022-08-19T01:42:52;11.15;;;5.63;;
46447;SDS011;32145;50.390;30.778;2022-08-19T01:45:36;9.98;;;5.28;;
46447;SDS011;32145;50.390;30.778;2022-08-19T01:48:20;15.88;;;6.00;;
46447;SDS011;32145;50.390;30.778;2022-08-19T01:51:04;9.13;;;5.50;;
46447;SDS011;32145;50.390;30.778;2022-08-19T01:53:49;12.15;;;5.70;;
46447;SDS011;32145;50.390;30.778;2022-08-19T01:56:36;12.40;;;4.53;;
46447;SDS011;32145;50.390;30.778;2022-08-19T01:59:20;9.20;;;5.28;;
46447;SDS011;32145;50.390;30.778;2022-08-19T02:02:07;12.00;;;5.28;;
46447;SDS011;32145;50.390;30.778;2022-08-19T02:04:51;9.60;;;5.30;;
46447;SDS011;32145;50.390;30.778;2022-08-19T02:07:35;8.63;;;5.30;;
46447;SDS011;32145;50.390;30.778;2022-08-19T02:10:20;11.38;;;5.22;;
46447;SDS011;32145;50.390;30.778;2022-08-19T02:13:07;12.20;;;5.47;;
46447;SDS011;32145;50.390;30.778;2022-08-19T02:15:51;14.70;;;5.88;;
46447;SDS011;32145;50.390;30.778;2022-08-19T02:18:35;9.70;;;5.55;;
46447;SDS011;32145;50.390;30.778;2022-08-19T02:21:20;9.38;;;5.32;;
46447;SDS011;32145;50.390;30.778;2022-08-19T02:24:05;11.73;;;5.03;;
46447;SDS011;32145;50.390;30.778;2022-08-19T02:26:50;11.10;;;5.53;;
46447;SDS011;32145;50.390;30.778;2022-08-19T02:29:35;10.38;;;5.40;;
46447;SDS011;32145;50.390;30.778;2022-08-19T02:32:19;9.52;;;5.60;;
46447;SDS011;32145;50.390;30.778;2022-08-19T02:35:04;10.63;;;5.72;;
46447;SDS011;32145;50.390;30.778;2022-08-19T02:37:48;11.85;;;5.75;;
46447;SDS011;32145;50.390;30.778;2022-08-19T02:40:33;9.70;;;5.70;;
46447;SDS011;32145;50.390;30.778;2022-08-19T02:43:18;10.65;;;5.25;;
46447;SDS011;32145;50.390;30.778;2022-08-19T02:46:11;13.00;;;5.72;;
46447;SDS011;32145;50.390;30.778;2022-08-19T02:48:58;15.27;;;5.53;;
46447;SDS011;32145;50.390;30.778;2022-08-19T02:51:44;13.18;;;6.00;;
46447;SDS011;32145;50.390;30.778;2022-08-19T02:54:29;12.38;;;5.78;;
46447;SDS011;32145;50.390;30.778;2022-08-19T02:57:14;10.85;;;5.90;;
46447;SDS011;32145;50.390;30.778;2022-08-19T02:59:58;9.57;;;5.85;;
46447;SDS011;32145;50.390;30.778;2022-08-19T03:02:43;9.00;;;5.40;;
46447;SDS011;32145;50.390;30.778;2022-08-19T03:05:27;12.75;;;5.63;;
46447;SDS011;32145;50.390;30.778;2022-08-19T03:08:12;12.30;;;5.50;;
46447;SDS011;32145;50.390;30.778;2022-08-19T03:10:56;8.50;;;5.15;;
46447;SDS011;32145;50.390;30.778;2022-08-19T03:13:40;11.43;;;5.38;;
46447;SDS011;32145;50.390;30.778;2022-08-19T03:16:25;15.15;;;5.70;;
46447;SDS011;32145;50.390;30.778;2022-08-19T03:19:13;14.90;;;5.38;;
46447;SDS011;32145;50.390;30.778;2022-08-19T03:21:59;11.57;;;5.75;;
46447;SDS011;32145;50.390;30.778;2022-08-19T03:24:44;12.23;;;6.03;;
46447;SDS011;32145;50.390;30.778;2022-08-19T03:27:28;8.05;;;5.22;;
46447;SDS011;32145;50.390;30.778;2022-08-19T03:30:12;11.93;;;5.80;;
46447;SDS011;32145;50.390;30.778;2022-08-19T03:32:56;11.27;;;5.53;;
46447;SDS011;32145;50.390;30.778;2022-08-19T03:35:42;14.45;;;5.88;;
46447;SDS011;32145;50.390;30.778;2022-08-19T03:38:26;14.50;;;5.90;;
46447;SDS011;32145;50.390;30.778;2022-08-19T03:41:11;8.93;;;5.30;;
46447;SDS011;32145;50.390;30.778;2022-08-19T03:43:57;10.13;;;5.70;;
46447;SDS011;32145;50.390;30.778;2022-08-19T03:46:42;11.88;;;5.28;;
46447;SDS011;32145;50.390;30.778;2022-08-19T03:49:26;13.07;;;5.38;;
46447;SDS011;32145;50.390;30.778;2022-08-19T03:52:13;13.02;;;5.70;;
46447;SDS011;32145;50.390;30.778;2022-08-19T03:54:57;9.05;;;4.90;;
46447;SDS011;32145;50.390;30.778;2022-08-19T03:57:41;11.10;;;5.03;;
46447;SDS011;32145;50.390;30.778;2022-08-19T04:00:25;8.23;;;4.70;;
46447;SDS011;32145;50.390;30.778;2022-08-19T04:03:09;12.05;;;5.50;;
46447;SDS011;32145;50.390;30.778;2022-08-19T04:05:53;10.77;;;5.07;;
46447;SDS011;32145;50.390;30.778;2022-08-19T04:08:39;9.38;;;4.90;;
46447;SDS011;32145;50.390;30.778;2022-08-19T04:11:24;9.30;;;5.15;;
46447;SDS011;32145;50.390;30.778;2022-08-19T04:14:10;7.13;;;4.97;;
46447;SDS011;32145;50.390;30.778;2022-08-19T04:16:56;9.77;;;4.60;;
46447;SDS011;32145;50.390;30.778;2022-08-19T04:19:41;10.20;;;4.75;;
46447;SDS011;32145;50.390;30.778;2022-08-19T04:22:25;9.55;;;4.88;;
46447;SDS011;32145;50.390;30.778;2022-08-19T04:25:11;10.52;;;4.68;;
46447;SDS011;32145;50.390;30.778;2022-08-19T04:27:55;8.90;;;4.97;;
46447;SDS011;32145;50.390;30.778;2022-08-19T04:30:40;13.10;;;5.65;;
46447;SDS011;32145;50.390;30.778;2022-08-19T04:33:26;9.23;;;4.93;;
46447;SDS011;32145;50.390;30.778;2022-08-19T04:36:15;10.10;;;4.80;;
46447;SDS011;32145;50.390;30.778;2022-08-19T04:39:01;12.88;;;5.30;;
46447;SDS011;32145;50.390;30.778;2022-08-19T04:41:49;10.48;;;4.75;;
46447;SDS011;32145;50.390;30.778;2022-08-19T04:44:34;9.43;;;4.88;;
46447;SDS011;32145;50.390;30.778;2022-08-19T04:47:19;12.52;;;4.85;;
46447;SDS011;32145;50.390;30.778;2022-08-19T04:50:03;9.38;;;5.00;;
46447;SDS011;32145;50.390;30.778;2022-08-19T04:52:49;12.80;;;5.07;;
46447;SDS011;32145;50.390;30.778;2022-08-19T04:55:34;13.00;;;5.30;;
46447;SDS011;32145;50.390;30.778;2022-08-19T04:58:24;9.30;;;4.95;;
46447;SDS011;32145;50.390;30.778;2022-08-19T05:01:11;11.20;;;5.05;;
46447;SDS011;32145;50.390;30.778;2022-08-19T05:03:57;14.80;;;5.30;;
46447;SDS011;32145;50.390;30.778;2022-08-19T05:06:41;11.60;;;5.03;;
46447;SDS011;32145;50.390;30.778;2022-08-19T05:09:26;14.27;;;5.13;;
46447;SDS011;32145;50.390;30.778;2022-08-19T05:12:10;10.88;;;4.80;;
46447;SDS011;32145;50.390;30.778;2022-08-19T05:14:55;8.18;;;5.00;;
46447;SDS011;32145;50.390;30.778;2022-08-19T05:17:40;10.68;;;4.95;;
46447;SDS011;32145;50.390;30.778;2022-08-19T05:20:24;6.63;;;4.50;;
46447;SDS011;32145;50.390;30.778;2022-08-19T05:23:09;11.15;;;5.15;;
46447;SDS011;32145;50.390;30.778;2022-08-19T05:25:54;11.18;;;5.10;;
46447;SDS011;32145;50.390;30.778;2022-08-19T05:28:38;8.13;;;4.88;;
46447;SDS011;32145;50.390;30.778;2022-08-19T05:31:23;11.52;;;5.05;;
46447;SDS011;32145;50.390;30.778;2022-08-19T05:34:08;10.93;;;4.93;;
46447;SDS011;32145;50.390;30.778;2022-08-19T05:36:53;7.55;;;4.50;;
46447;SDS011;32145;50.390;30.778;2022-08-19T05:39:38;10.43;;;5.07;;
46447;SDS011;32145;50.390;30.778;2022-08-19T05:42:22;12.35;;;5.47;;
46447;SDS011;32145;50.390;30.778;2022-08-19T05:45:07;16.73;;;5.18;;
46447;SDS011;32145;50.390;30.778;2022-08-19T05:47:53;9.18;;;5.22;;
46447;SDS011;32145;50.390;30.778;2022-08-19T05:50:38;10.38;;;5.03;;
46447;SDS011;32145;50.390;30.778;2022-08-19T05:53:22;13.65;;;4.78;;
46447;SDS011;32145;50.390;30.778;2022-08-19T05:56:07;9.13;;;5.05;;
46447;SDS011;32145;50.390;30.778;2022-08-19T05:58:53;9.68;;;5.07;;
46447;SDS011;32145;50.390;30.778;2022-08-19T06:01:38;12.23;;;5.40;;
46447;SDS011;32145;50.390;30.778;2022-08-19T06:04:24;9.68;;;5.00;;
46447;SDS011;32145;50.390;30.778;2022-08-19T06:07:08;10.25;;;4.78;;
46447;SDS011;32145;50.390;30.778;2022-08-19T06:09:53;10.25;;;4.85;;
46447;SDS011;32145;50.390;30.778;2022-08-19T06:12:37;12.25;;;4.80;;
46447;SDS011;32145;50.390;30.778;2022-08-19T06:15:21;6.85;;;4.45;;
46447;SDS011;32145;50.390;30.778;2022-08-19T06:18:06;13.65;;;5.68;;
46447;SDS011;32145;50.390;30.778;2022-08-19T06:20:51;12.93;;;5.05;;
46447;SDS011;32145;50.390;30.778;2022-08-19T06:23:35;11.05;;;5.13;;
46447;SDS011;32145;50.390;30.778;2022-08-19T06:26:19;13.43;;;4.95;;
46447;SDS011;32145;50.390;30.778;2022-08-19T06:29:05;12.07;;;5.32;;
46447;SDS011;32145;50.390;30.778;2022-08-19T06:31:51;14.00;;;5.10;;
46447;SDS011;32145;50.390;30.778;2022-08-19T06:34:37;11.63;;;5.22;;
46447;SDS011;32145;50.390;30.778;2022-08-19T06:37:23;9.23;;;4.43;;
46447;SDS011;32145;50.390;30.778;2022-08-19T06:40:07;14.07;;;4.82;;
46447;SDS011;32145;50.390;30.778;2022-08-19T06:42:51;7.13;;;4.57;;
46447;SDS011;32145;50.390;30.778;2022-08-19T06:45:36;8.77;;;4.65;;
46447;SDS011;32145;50.390;30.778;2022-08-19T06:48:20;9.25;;;4.72;;
46447;SDS011;32145;50.390;30.778;2022-08-19T06:51:04;11.57;;;4.93;;
46447;SDS011;32145;50.390;30.778;2022-08-19T06:53:51;10.52;;;4.70;;
46447;SDS011;32145;50.390;30.778;2022-08-19T06:56:36;11.88;;;4.30;;
46447;SDS011;32145;50.390;30.778;2022-08-19T06:59:23;9.65;;;5.00;;
46447;SDS011;32145;50.390;30.778;2022-08-19T07:02:08;9.93;;;4.65;;
46447;SDS011;32145;50.390;30.778;2022-08-19T07:04:52;9.98;;;4.32;;
46447;SDS011;32145;50.390;30.778;2022-08-19T07:07:37;9.10;;;4.50;;
46447;SDS011;32145;50.390;30.778;2022-08-19T07:10:22;10.55;;;4.88;;
46447;SDS011;32145;50.390;30.778;2022-08-19T07:13:06;9.30;;;4.25;;
46447;SDS011;32145;50.390;30.778;2022-08-19T07:15:51;14.75;;;4.93;;
46447;SDS011;32145;50.390;30.778;2022-08-19T07:18:35;12.63;;;4.90;;
46447;SDS011;32145;50.390;30.778;2022-08-19T07:21:20;7.70;;;4.85;;
46447;SDS011;32145;50.390;30.778;2022-08-19T07:24:06;16.05;;;4.50;;
46447;SDS011;32145;50.390;30.778;2022-08-19T07:26:53;11.70;;;4.72;;
46447;SDS011;32145;50.390;30.778;2022-08-19T07:29:38;11.95;;;4.93;;
46447;SDS011;32145;50.390;30.778;2022-08-19T07:32:22;11.25;;;4.45;;
46447;SDS011;32145;50.390;30.778;2022-08-19T07:35:07;9.35;;;4.55;;
46447;SDS011;32145;50.390;30.778;2022-08-19T07:37:51;11.77;;;4.82;;
46447;SDS011;32145;50.390;30.778;2022-08-19T07:40:35;19.55;;;4.72;;
46447;SDS011;32145;50.390;30.778;2022-08-19T07:43:21;10.82;;;4.90;;
46447;SDS011;32145;50.390;30.778;2022-08-19T07:46:05;11.70;;;4.53;;
46447;SDS011;32145;50.390;30.778;2022-08-19T07:48:50;10.50;;;5.03;;
46447;SDS011;32145;50.390;30.778;2022-08-19T07:51:35;13.38;;;4.60;;
46447;SDS011;32145;50.390;30.778;2022-08-19T07:54:19;14.35;;;4.80;;
46447;SDS011;32145;50.390;30.778;2022-08-19T07:57:06;12.00;;;4.32;;
46447;SDS011;32145;50.390;30.778;2022-08-19T07:59:52;11.30;;;4.50;;
46447;SDS011;32145;50.390;30.778;2022-08-19T08:02:35;8.63;;;4.30;;
46447;SDS011;32145;50.390;30.778;2022-08-19T08:05:19;11.32;;;4.80;;
46447;SDS011;32145;50.390;30.778;2022-08-19T08:08:03;11.45;;;4.75;;
46447;SDS011;32145;50.390;30.778;2022-08-19T08:10:47;10.90;;;4.38;;
46447;SDS011;32145;50.390;30.778;2022-08-19T08:13:31;17.02;;;4.32;;
46447;SDS011;32145;50.390;30.778;2022-08-19T08:16:19;8.68;;;4.20;;
46447;SDS011;32145;50.390;30.778;2022-08-19T08:19:04;10.80;;;4.57;;
46447;SDS011;32145;50.390;30.778;2022-08-19T08:21:48;10.15;;;4.55;;
46447;SDS011;32145;50.390;30.778;2022-08-19T08:24:33;13.15;;;5.28;;
46447;SDS011;32145;50.390;30.778;2022-08-19T08:27:17;11.52;;;4.70;;
46447;SDS011;32145;50.390;30.778;2022-08-19T08:30:02;12.20;;;4.85;;
46447;SDS011;32145;50.390;30.778;2022-08-19T08:32:48;20.10;;;4.40;;
46447;SDS011;32145;50.390;30.778;2022-08-19T08:35:32;14.27;;;4.38;;
46447;SDS011;32145;50.390;30.778;2022-08-19T08:38:16;12.07;;;4.85;;
46447;SDS011;32145;50.390;30.778;2022-08-19T08:41:01;12.18;;;4.30;;
46447;SDS011;32145;50.390;30.778;2022-08-19T08:43:52;10.65;;;4.60;;
46447;SDS011;32145;50.390;30.778;2022-08-19T08:46:37;12.50;;;3.95;;
46447;SDS011;32145;50.390;30.778;2022-08-19T08:49:31;6.60;;;3.92;;
46447;SDS011;32145;50.390;30.778;2022-08-19T08:52:24;10.48;;;4.70;;
46447;SDS011;32145;50.390;30.778;2022-08-19T08:55:10;10.60;;;4.30;;
46447;SDS011;32145;50.390;30.778;2022-08-19T08:57:59;17.23;;;5.20;;
46447;SDS011;32145;50.390;30.778;2022-08-19T09:00:47;11.40;;;4.78;;
46447;SDS011;32145;50.390;30.778;2022-08-19T09:03:34;13.27;;;4.22;;
46447;SDS011;32145;50.390;30.778;2022-08-19T09:06:24;12.45;;;4.50;;
46447;SDS011;32145;50.390;30.778;2022-08-19T09:09:16;9.45;;;4.35;;
46447;SDS011;32145;50.390;30.778;2022-08-19T09:12:05;7.57;;;4.00;;
46447;SDS011;32145;50.390;30.778;2022-08-19T09:14:55;13.70;;;4.28;;
46447;SDS011;32145;50.390;30.778;2022-08-19T09:17:43;10.57;;;4.68;;
46447;SDS011;32145;50.390;30.778;2022-08-19T09:20:31;11.45;;;4.40;;
46447;SDS011;32145;50.390;30.778;2022-08-19T09:23:16;11.00;;;4.82;;
46447;SDS011;32145;50.390;30.778;2022-08-19T09:26:04;9.85;;;4.53;;
46447;SDS011;32145;50.390;30.778;2022-08-19T09:28:51;10.38;;;4.00;;
46447;SDS011;32145;50.390;30.778;2022-08-19T09:31:36;13.63;;;4.35;;
46447;SDS011;32145;50.390;30.778;2022-08-19T09:34:21;8.80;;;4.45;;
46447;SDS011;32145;50.390;30.778;2022-08-19T09:37:05;11.40;;;4.65;;
46447;SDS011;32145;50.390;30.778;2022-08-19T09:39:51;10.45;;;4.70;;
46447;SDS011;32145;50.390;30.778;2022-08-19T09:42:35;9.80;;;4.78;;
46447;SDS011;32145;50.390;30.778;2022-08-19T09:45:20;8.55;;;4.75;;
46447;SDS011;32145;50.390;30.778;2022-08-19T09:48:05;10.10;;;4.82;;
46447;SDS011;32145;50.390;30.778;2022-08-19T09:50:49;13.07;;;4.70;;
46447;SDS011;32145;50.390;30.778;2022-08-19T09:53:33;9.88;;;4.72;;
46447;SDS011;32145;50.390;30.778;2022-08-19T09:56:18;12.07;;;4.65;;
46447;SDS011;32145;50.390;30.778;2022-08-19T09:59:04;10.02;;;4.68;;
46447;SDS011;32145;50.390;30.778;2022-08-19T10:01:48;12.35;;;4.75;;
46447;SDS011;32145;50.390;30.778;2022-08-19T10:04:32;9.90;;;5.18;;
46447;SDS011;32145;50.390;30.778;2022-08-19T10:07:16;15.95;;;4.97;;
46447;SDS011;32145;50.390;30.778;2022-08-19T10:10:00;7.45;;;4.20;;
46447;SDS011;32145;50.390;30.778;2022-08-19T10:12:45;9.15;;;4.60;;
46447;SDS011;32145;50.390;30.778;2022-08-19T10:15:30;12.13;;;4.70;;
46447;SDS011;32145;50.390;30.778;2022-08-19T10:18:14;11.73;;;5.03;;
46447;SDS011;32145;50.390;30.778;2022-08-19T10:21:03;8.05;;;4.65;;
46447;SDS011;32145;50.390;30.778;2022-08-19T10:23:51;11.70;;;4.80;;
46447;SDS011;32145;50.390;30.778;2022-08-19T10:26:38;10.30;;;4.70;;
46447;SDS011;32145;50.390;30.778;2022-08-19T10:29:25;8.90;;;4.88;;
46447;SDS011;32145;50.390;30.778;2022-08-19T10:32:10;15.35;;;4.93;;
46447;SDS011;32145;50.390;30.778;2022-08-19T10:34:54;10.38;;;4.65;;
46447;SDS011;32145;50.390;30.778;2022-08-19T10:37:38;13.38;;;4.85;;
46447;SDS011;32145;50.390;30.778;2022-08-19T10:40:23;10.82;;;4.70;;
46447;SDS011;32145;50.390;30.778;2022-08-19T10:43:07;10.35;;;4.47;;
46447;SDS011;32145;50.390;30.778;2022-08-19T10:45:53;9.10;;;4.18;;
46447;SDS011;32145;50.390;30.778;2022-08-19T10:48:38;9.48;;;4.47;;
46447;SDS011;32145;50.390;30.778;2022-08-19T10:51:22;13.40;;;4.47;;
46447;SDS011;32145;50.390;30.778;2022-08-19T10:54:06;9.50;;;4.03;;
46447;SDS011;32145;50.390;30.778;2022-08-19T10:56:50;10.40;;;4.20;;
46447;SDS011;32145;50.390;30.778;2022-08-19T10:59:34;8.85;;;3.97;;
46447;SDS011;32145;50.390;30.778;2022-08-19T11:02:19;9.05;;;4.03;;
46447;SDS011;32145;50.390;30.778;2022-08-19T11:05:04;9.70;;;4.18;;
46447;SDS011;32145;50.390;30.778;2022-08-19T11:07:48;11.57;;;4.07;;
46447;SDS011;32145;50.390;30.778;2022-08-19T11:10:32;13.38;;;4.05;;
46447;SDS011;32145;50.390;30.778;2022-08-19T11:13:16;14.13;;;4.38;;
46447;SDS011;32145;50.390;30.778;2022-08-19T11:16:01;9.63;;;4.10;;
46447;SDS011;32145;50.390;30.778;2022-08-19T11:18:51;6.60;;;3.90;;
46447;SDS011;32145;50.390;30.778;2022-08-19T11:21:37;7.15;;;3.88;;
46447;SDS011;32145;50.390;30.778;2022-08-19T11:24:24;11.40;;;3.95;;
46447;SDS011;32145;50.390;30.778;2022-08-19T11:27:09;8.55;;;3.83;;
46447;SDS011;32145;50.390;30.778;2022-08-19T11:29:54;9.15;;;3.80;;
46447;SDS011;32145;50.390;30.778;2022-08-19T11:32:38;11.30;;;4.07;;
46447;SDS011;32145;50.390;30.778;2022-08-19T11:35:23;9.07;;;3.67;;
46447;SDS011;32145;50.390;30.778;2022-08-19T11:38:08;11.60;;;4.15;;
46447;SDS011;32145;50.390;30.778;2022-08-19T11:40:55;12.13;;;3.80;;
46447;SDS011;32145;50.390;30.778;2022-08-19T11:43:40;11.57;;;4.25;;
46447;SDS011;32145;50.390;30.778;2022-08-19T11:46:25;7.90;;;3.58;;
46447;SDS011;32145;50.390;30.778;2022-08-19T11:49:10;10.43;;;3.75;;
46447;SDS011;32145;50.390;30.778;2022-08-19T11:51:56;10.48;;;3.30;;
46447;SDS011;32145;50.390;30.778;2022-08-19T11:54:40;11.35;;;3.67;;
46447;SDS011;32145;50.390;30.778;2022-08-19T11:57:24;7.60;;;3.33;;
46447;SDS011;32145;50.390;30.778;2022-08-19T12:00:08;7.75;;;3.65;;
46447;SDS011;32145;50.390;30.778;2022-08-19T12:02:53;7.50;;;3.75;;
46447;SDS011;32145;50.390;30.778;2022-08-19T12:05:37;8.18;;;4.07;;
46447;SDS011;32145;50.390;30.778;2022-08-19T12:08:24;7.72;;;3.30;;
46447;SDS011;32145;50.390;30.778;2022-08-19T12:11:08;7.97;;;3.60;;
46447;SDS011;32145;50.390;30.778;2022-08-19T12:13:52;9.88;;;3.90;;
46447;SDS011;32145;50.390;30.778;2022-08-19T12:16:37;8.73;;;3.85;;
46447;SDS011;32145;50.390;30.778;2022-08-19T12:19:21;15.82;;;3.72;;
46447;SDS011;32145;50.390;30.778;2022-08-19T12:22:06;10.57;;;3.85;;
46447;SDS011;32145;50.390;30.778;2022-08-19T12:24:51;9.85;;;4.13;;
46447;SDS011;32145;50.390;30.778;2022-08-19T12:27:35;10.02;;;3.90;;
46447;SDS011;32145;50.390;30.778;2022-08-19T12:30:19;11.77;;;3.85;;
46447;SDS011;32145;50.390;30.778;2022-08-19T12:33:03;9.85;;;3.90;;
46447;SDS011;32145;50.390;30.778;2022-08-19T12:35:47;12.95;;;4.15;;
46447;SDS011;32145;50.390;30.778;2022-08-19T12:38:31;10.38;;;4.50;;
46447;SDS011;32145;50.390;30.778;2022-08-19T12:41:17;10.27;;;4.20;;
46447;SDS011;32145;50.390;30.778;2022-08-19T12:44:03;11.68;;;4.07;;
46447;SDS011;32145;50.390;30.778;2022-08-19T12:46:48;9.82;;;4.15;;
46447;SDS011;32145;50.390;30.778;2022-08-19T12:49:32;11.18;;;3.60;;
46447;SDS011;32145;50.390;30.778;2022-08-19T12:52:17;12.13;;;4.25;;
46447;SDS011;32145;50.390;30.778;2022-08-19T12:55:01;7.43;;;3.72;;
46447;SDS011;32145;50.390;30.778;2022-08-19T12:57:46;8.05;;;4.20;;
46447;SDS011;32145;50.390;30.778;2022-08-19T13:00:30;5.82;;;3.85;;
46447;SDS011;32145;50.390;30.778;2022-08-19T13:03:14;8.73;;;4.35;;
46447;SDS011;32145;50.390;30.778;2022-08-19T13:05:59;7.57;;;3.63;;
46447;SDS011;32145;50.390;30.778;2022-08-19T13:08:43;12.85;;;4.00;;
46447;SDS011;32145;50.390;30.778;2022-08-19T13:11:27;10.60;;;4.00;;
46447;SDS011;32145;50.390;30.778;2022-08-19T13:14:12;6.18;;;3.90;;
46447;SDS011;32145;50.390;30.778;2022-08-19T13:16:57;9.98;;;4.03;;
46447;SDS011;32145;50.390;30.778;2022-08-19T13:19:41;8.55;;;4.22;;
46447;SDS011;32145;50.390;30.778;2022-08-19T13:22:25;12.07;;;4.47;;
46447;SDS011;32145;50.390;30.778;2022-08-19T13:25:09;9.82;;;3.83;;
46447;SDS011;32145;50.390;30.778;2022-08-19T13:27:55;7.53;;;4.43;;
46447;SDS011;32145;50.390;30.778;2022-08-19T13:30:41;11.82;;;4.53;;
46447;SDS011;32145;50.390;30.778;2022-08-19T13:33:25;9.52;;;4.40;;
46447;SDS011;32145;50.390;30.778;2022-08-19T13:36:09;10.18;;;4.13;;
46447;SDS011;32145;50.390;30.778;2022-08-19T13:38:53;10.07;;;4.25;;
46447;SDS011;32145;50.390;30.778;2022-08-19T13:41:42;9.30;;;4.00;;
46447;SDS011;32145;50.390;30.778;2022-08-19T13:44:27;6.88;;;3.75;;
46447;SDS011;32145;50.390;30.778;2022-08-19T13:47:13;10.10;;;4.00;;
46447;SDS011;32145;50.390;30.778;2022-08-19T13:49:57;11.48;;;4.43;;
46447;SDS011;32145;50.390;30.778;2022-08-19T13:52:41;8.52;;;4.10;;
46447;SDS011;32145;50.390;30.778;2022-08-19T13:55:26;11.55;;;4.55;;
46447;SDS011;32145;50.390;30.778;2022-08-19T13:58:10;8.63;;;3.85;;
46447;SDS011;32145;50.390;30.778;2022-08-19T14:00:56;12.38;;;6.95;;
46447;SDS011;32145;50.390;30.778;2022-08-19T14:03:41;6.85;;;4.50;;
46447;SDS011;32145;50.390;30.778;2022-08-19T14:06:25;13.27;;;4.13;;
46447;SDS011;32145;50.390;30.778;2022-08-19T14:09:09;10.13;;;4.07;;
46447;SDS011;32145;50.390;30.778;2022-08-19T14:11:53;8.73;;;4.15;;
46447;SDS011;32145;50.390;30.778;2022-08-19T14:14:37;7.97;;;4.10;;
46447;SDS011;32145;50.390;30.778;2022-08-19T14:17:22;6.72;;;3.67;;
46447;SDS011;32145;50.390;30.778;2022-08-19T14:20:09;7.35;;;4.03;;
46447;SDS011;32145;50.390;30.778;2022-08-19T14:22:54;9.93;;;4.00;;
46447;SDS011;32145;50.390;30.778;2022-08-19T14:25:38;7.40;;;3.88;;
46447;SDS011;32145;50.390;30.778;2022-08-19T14:28:22;11.13;;;4.30;;
46447;SDS011;32145;50.390;30.778;2022-08-19T14:31:06;9.80;;;4.65;;
46447;SDS011;32145;50.390;30.778;2022-08-19T14:33:51;8.80;;;4.40;;
46447;SDS011;32145;50.390;30.778;2022-08-19T14:36:36;11.95;;;6.38;;
46447;SDS011;32145;50.390;30.778;2022-08-19T14:39:20;10.07;;;6.07;;
46447;SDS011;32145;50.390;30.778;2022-08-19T14:42:06;14.25;;;7.57;;
46447;SDS011;32145;50.390;30.778;2022-08-19T14:44:50;9.93;;;5.60;;
46447;SDS011;32145;50.390;30.778;2022-08-19T14:47:34;8.52;;;4.22;;
46447;SDS011;32145;50.390;30.778;2022-08-19T14:50:18;8.23;;;4.00;;
46447;SDS011;32145;50.390;30.778;2022-08-19T14:53:05;8.23;;;4.15;;
46447;SDS011;32145;50.390;30.778;2022-08-19T14:55:50;9.55;;;3.97;;
46447;SDS011;32145;50.390;30.778;2022-08-19T14:58:34;7.70;;;4.43;;
46447;SDS011;32145;50.390;30.778;2022-08-19T15:01:19;9.05;;;4.80;;
46447;SDS011;32145;50.390;30.778;2022-08-19T15:04:05;6.10;;;3.97;;
46447;SDS011;32145;50.390;30.778;2022-08-19T15:06:49;9.80;;;4.03;;
46447;SDS011;32145;50.390;30.778;2022-08-19T15:09:34;8.88;;;4.85;;
46447;SDS011;32145;50.390;30.778;2022-08-19T15:12:19;9.63;;;3.92;;
46447;SDS011;32145;50.390;30.778;2022-08-19T15:15:03;10.35;;;4.82;;
46447;SDS011;32145;50.390;30.778;2022-08-19T15:17:48;14.10;;;4.72;;
46447;SDS011;32145;50.390;30.778;2022-08-19T15:20:32;14.52;;;5.35;;
46447;SDS011;32145;50.390;30.778;2022-08-19T15:23:17;8.55;;;5.13;;
46447;SDS011;32145;50.390;30.778;2022-08-19T15:26:03;13.25;;;4.10;;
46447;SDS011;32145;50.390;30.778;2022-08-19T15:28:48;9.88;;;4.00;;
46447;SDS011;32145;50.390;30.778;2022-08-19T15:31:32;7.00;;;4.68;;
46447;SDS011;32145;50.390;30.778;2022-08-19T15:34:16;12.70;;;6.68;;
46447;SDS011;32145;50.390;30.778;2022-08-19T15:37:00;15.70;;;7.38;;
46447;SDS011;32145;50.390;30.778;2022-08-19T15:39:44;10.32;;;4.88;;
46447;SDS011;32145;50.390;30.778;2022-08-19T15:42:30;12.95;;;6.25;;
46447;SDS011;32145;50.390;30.778;2022-08-19T15:45:14;9.93;;;5.35;;
46447;SDS011;32145;50.390;30.778;2022-08-19T15:48:03;8.87;;;5.13;;
46447;SDS011;32145;50.390;30.778;2022-08-19T15:50:48;13.95;;;8.32;;
46447;SDS011;32145;50.390;30.778;2022-08-19T15:53:32;12.40;;;5.40;;
46447;SDS011;32145;50.390;30.778;2022-08-19T15:56:16;13.35;;;7.78;;
46447;SDS011;32145;50.390;30.778;2022-08-19T15:59:02;12.32;;;5.28;;
46447;SDS011;32145;50.390;30.778;2022-08-19T16:01:46;10.95;;;4.13;;
46447;SDS011;32145;50.390;30.778;2022-08-19T16:04:30;12.15;;;4.47;;
46447;SDS011;32145;50.390;30.778;2022-08-19T16:07:14;10.05;;;4.10;;
46447;SDS011;32145;50.390;30.778;2022-08-19T16:09:57;8.38;;;3.58;;